sensor_id;sensor_type;location;lat;lon;timestamp;P1;durP1;ratioP1;P2;durP2;ratioP2
12112;SDS011;6120;52.250;8.478;2023-07-16T00:02:22;2.63;;;2.42;;
12112;SDS011;6120;52.250;8.478;2023-07-16T00:04:49;3.78;;;2.60;;
12112;SDS011;6120;52.250;8.478;2023-07-16T00:07:16;2.75;;;2.30;;
12112;SDS011;6120;52.250;8.478;2023-07-16T00:09:43;2.70;;;2.50;;
12112;SDS011;6120;52.250;8.478;2023-07-16T00:12:10;2.08;;;1.95;;
12112;SDS011;6120;52.250;8.478;2023-07-16T00:14:37;2.58;;;2.35;;
12112;SDS011;6120;52.250;8.478;2023-07-16T00:17:03;2.35;;;2.15;;
12112;SDS011;6120;52.250;8.478;2023-07-16T00:19:30;2.47;;;2.25;;
12112;SDS011;6120;52.250;8.478;2023-07-16T00:21:57;2.33;;;2.13;;
12112;SDS011;6120;52.250;8.478;2023-07-16T00:24:23;3.63;;;2.25;;
12112;SDS011;6120;52.250;8.478;2023-07-16T00:26:50;2.97;;;2.45;;
12112;SDS011;6120;52.250;8.478;2023-07-16T00:29:16;2.30;;;2.10;;
12112;SDS011;6120;52.250;8.478;2023-07-16T00:31:43;2.38;;;2.17;;
12112;SDS011;6120;52.250;8.478;2023-07-16T00:34:10;2.20;;;2.00;;
12112;SDS011;6120;52.250;8.478;2023-07-16T00:36:36;2.53;;;2.33;;
12112;SDS011;6120;52.250;8.478;2023-07-16T00:39:03;2.30;;;2.10;;
12112;SDS011;6120;52.250;8.478;2023-07-16T00:41:29;2.60;;;2.40;;
12112;SDS011;6120;52.250;8.478;2023-07-16T00:43:56;2.40;;;2.20;;
12112;SDS011;6120;52.250;8.478;2023-07-16T00:46:23;2.20;;;2.00;;
12112;SDS011;6120;52.250;8.478;2023-07-16T00:48:50;2.70;;;2.50;;
12112;SDS011;6120;52.250;8.478;2023-07-16T00:51:17;2.00;;;1.90;;
12112;SDS011;6120;52.250;8.478;2023-07-16T00:53:45;2.38;;;2.17;;
12112;SDS011;6120;52.250;8.478;2023-07-16T00:56:12;2.30;;;2.10;;
12112;SDS011;6120;52.250;8.478;2023-07-16T00:58:43;2.42;;;2.22;;
12112;SDS011;6120;52.250;8.478;2023-07-16T01:01:10;2.45;;;2.20;;
12112;SDS011;6120;52.250;8.478;2023-07-16T01:03:36;2.50;;;2.30;;
12112;SDS011;6120;52.250;8.478;2023-07-16T01:06:25;2.47;;;2.28;;
12112;SDS011;6120;52.250;8.478;2023-07-16T01:11:24;2.55;;;2.35;;
12112;SDS011;6120;52.250;8.478;2023-07-16T01:13:51;2.30;;;2.10;;
12112;SDS011;6120;52.250;8.478;2023-07-16T01:16:23;2.30;;;2.08;;
12112;SDS011;6120;52.250;8.478;2023-07-16T01:18:51;2.20;;;2.00;;
12112;SDS011;6120;52.250;8.478;2023-07-16T01:21:19;2.50;;;2.30;;
12112;SDS011;6120;52.250;8.478;2023-07-16T01:24:05;2.78;;;2.15;;
12112;SDS011;6120;52.250;8.478;2023-07-16T01:31:59;2.28;;;2.08;;
12112;SDS011;6120;52.250;8.478;2023-07-16T01:34:28;2.30;;;2.10;;
12112;SDS011;6120;52.250;8.478;2023-07-16T01:36:57;2.30;;;2.10;;
12112;SDS011;6120;52.250;8.478;2023-07-16T01:39:24;2.67;;;2.28;;
12112;SDS011;6120;52.250;8.478;2023-07-16T01:41:52;2.40;;;2.20;;
12112;SDS011;6120;52.250;8.478;2023-07-16T01:44:18;2.33;;;2.13;;
12112;SDS011;6120;52.250;8.478;2023-07-16T01:46:47;2.42;;;2.22;;
12112;SDS011;6120;52.250;8.478;2023-07-16T01:49:20;2.47;;;2.28;;
12112;SDS011;6120;52.250;8.478;2023-07-16T01:51:46;2.20;;;2.00;;
12112;SDS011;6120;52.250;8.478;2023-07-16T01:54:13;2.35;;;2.15;;
12112;SDS011;6120;52.250;8.478;2023-07-16T01:56:40;2.53;;;2.33;;
12112;SDS011;6120;52.250;8.478;2023-07-16T01:59:06;2.40;;;2.20;;
12112;SDS011;6120;52.250;8.478;2023-07-16T02:01:33;2.50;;;2.30;;
12112;SDS011;6120;52.250;8.478;2023-07-16T02:04:00;2.40;;;2.20;;
12112;SDS011;6120;52.250;8.478;2023-07-16T02:06:26;2.20;;;2.00;;
12112;SDS011;6120;52.250;8.478;2023-07-16T02:08:53;2.10;;;2.00;;
12112;SDS011;6120;52.250;8.478;2023-07-16T02:11:20;1.98;;;1.88;;
12112;SDS011;6120;52.250;8.478;2023-07-16T02:13:46;2.50;;;2.30;;
12112;SDS011;6120;52.250;8.478;2023-07-16T02:16:13;2.25;;;2.03;;
12112;SDS011;6120;52.250;8.478;2023-07-16T02:18:40;2.25;;;2.05;;
12112;SDS011;6120;52.250;8.478;2023-07-16T02:21:07;2.25;;;2.10;;
12112;SDS011;6120;52.250;8.478;2023-07-16T02:23:34;2.30;;;2.10;;
12112;SDS011;6120;52.250;8.478;2023-07-16T02:26:00;2.92;;;2.28;;
12112;SDS011;6120;52.250;8.478;2023-07-16T02:28:27;2.50;;;2.30;;
12112;SDS011;6120;52.250;8.478;2023-07-16T02:30:54;2.60;;;2.40;;
12112;SDS011;6120;52.250;8.478;2023-07-16T02:33:21;2.88;;;2.67;;
12112;SDS011;6120;52.250;8.478;2023-07-16T02:35:47;2.80;;;2.58;;
12112;SDS011;6120;52.250;8.478;2023-07-16T02:38:15;2.43;;;2.23;;
12112;SDS011;6120;52.250;8.478;2023-07-16T02:40:42;3.05;;;2.30;;
12112;SDS011;6120;52.250;8.478;2023-07-16T02:43:12;2.70;;;2.50;;
12112;SDS011;6120;52.250;8.478;2023-07-16T02:45:39;2.75;;;2.55;;
12112;SDS011;6120;52.250;8.478;2023-07-16T02:48:06;2.90;;;2.70;;
12112;SDS011;6120;52.250;8.478;2023-07-16T02:50:33;2.65;;;2.45;;
12112;SDS011;6120;52.250;8.478;2023-07-16T02:53:04;2.58;;;2.38;;
12112;SDS011;6120;52.250;8.478;2023-07-16T02:55:31;2.55;;;2.35;;
12112;SDS011;6120;52.250;8.478;2023-07-16T02:57:57;2.50;;;2.30;;
12112;SDS011;6120;52.250;8.478;2023-07-16T03:00:24;2.40;;;2.20;;
12112;SDS011;6120;52.250;8.478;2023-07-16T03:02:51;2.60;;;2.40;;
12112;SDS011;6120;52.250;8.478;2023-07-16T03:05:17;2.70;;;2.50;;
12112;SDS011;6120;52.250;8.478;2023-07-16T03:07:44;2.90;;;2.70;;
12112;SDS011;6120;52.250;8.478;2023-07-16T03:10:11;2.60;;;2.40;;
12112;SDS011;6120;52.250;8.478;2023-07-16T03:12:37;2.80;;;2.55;;
12112;SDS011;6120;52.250;8.478;2023-07-16T03:15:04;2.25;;;2.05;;
12112;SDS011;6120;52.250;8.478;2023-07-16T03:17:31;2.50;;;2.30;;
12112;SDS011;6120;52.250;8.478;2023-07-16T03:19:58;2.50;;;2.30;;
12112;SDS011;6120;52.250;8.478;2023-07-16T03:22:25;2.60;;;2.40;;
12112;SDS011;6120;52.250;8.478;2023-07-16T03:24:51;3.13;;;2.22;;
12112;SDS011;6120;52.250;8.478;2023-07-16T03:27:18;2.60;;;2.40;;
12112;SDS011;6120;52.250;8.478;2023-07-16T03:29:46;2.60;;;2.40;;
12112;SDS011;6120;52.250;8.478;2023-07-16T03:32:13;2.55;;;2.35;;
12112;SDS011;6120;52.250;8.478;2023-07-16T03:34:40;2.50;;;2.30;;
12112;SDS011;6120;52.250;8.478;2023-07-16T03:37:06;2.40;;;2.20;;
12112;SDS011;6120;52.250;8.478;2023-07-16T03:39:33;2.38;;;2.17;;
12112;SDS011;6120;52.250;8.478;2023-07-16T03:42:00;2.70;;;2.50;;
12112;SDS011;6120;52.250;8.478;2023-07-16T03:44:26;2.67;;;2.47;;
12112;SDS011;6120;52.250;8.478;2023-07-16T03:46:53;2.83;;;2.63;;
12112;SDS011;6120;52.250;8.478;2023-07-16T03:49:20;2.75;;;2.40;;
12112;SDS011;6120;52.250;8.478;2023-07-16T03:51:46;2.85;;;2.58;;
12112;SDS011;6120;52.250;8.478;2023-07-16T03:54:13;2.50;;;2.13;;
12112;SDS011;6120;52.250;8.478;2023-07-16T03:56:40;2.60;;;2.40;;
12112;SDS011;6120;52.250;8.478;2023-07-16T03:59:06;2.80;;;2.60;;
12112;SDS011;6120;52.250;8.478;2023-07-16T04:01:33;2.60;;;2.40;;
12112;SDS011;6120;52.250;8.478;2023-07-16T04:04:00;2.53;;;2.30;;
12112;SDS011;6120;52.250;8.478;2023-07-16T04:06:26;2.60;;;2.40;;
12112;SDS011;6120;52.250;8.478;2023-07-16T04:08:53;2.60;;;2.40;;
12112;SDS011;6120;52.250;8.478;2023-07-16T04:11:20;2.75;;;2.53;;
12112;SDS011;6120;52.250;8.478;2023-07-16T04:13:46;2.72;;;2.53;;
12112;SDS011;6120;52.250;8.478;2023-07-16T04:16:13;2.40;;;2.20;;
12112;SDS011;6120;52.250;8.478;2023-07-16T04:18:40;2.85;;;2.65;;
12112;SDS011;6120;52.250;8.478;2023-07-16T04:21:07;3.10;;;2.80;;
12112;SDS011;6120;52.250;8.478;2023-07-16T04:23:33;2.80;;;2.60;;
12112;SDS011;6120;52.250;8.478;2023-07-16T04:26:00;2.97;;;2.60;;
12112;SDS011;6120;52.250;8.478;2023-07-16T04:28:27;3.03;;;2.80;;
12112;SDS011;6120;52.250;8.478;2023-07-16T04:30:53;3.42;;;2.75;;
12112;SDS011;6120;52.250;8.478;2023-07-16T04:33:20;3.10;;;2.83;;
12112;SDS011;6120;52.250;8.478;2023-07-16T04:35:47;3.10;;;2.80;;
12112;SDS011;6120;52.250;8.478;2023-07-16T04:38:13;3.67;;;2.83;;
12112;SDS011;6120;52.250;8.478;2023-07-16T04:40:41;2.53;;;2.33;;
12112;SDS011;6120;52.250;8.478;2023-07-16T04:43:08;2.80;;;2.60;;
12112;SDS011;6120;52.250;8.478;2023-07-16T04:45:35;2.95;;;2.65;;
12112;SDS011;6120;52.250;8.478;2023-07-16T04:48:02;2.70;;;2.50;;
12112;SDS011;6120;52.250;8.478;2023-07-16T04:50:29;2.90;;;2.42;;
12112;SDS011;6120;52.250;8.478;2023-07-16T04:52:55;2.70;;;2.42;;
12112;SDS011;6120;52.250;8.478;2023-07-16T04:55:22;2.35;;;2.15;;
12112;SDS011;6120;52.250;8.478;2023-07-16T04:57:49;2.50;;;2.30;;
12112;SDS011;6120;52.250;8.478;2023-07-16T05:00:15;2.55;;;2.35;;
12112;SDS011;6120;52.250;8.478;2023-07-16T05:02:42;2.67;;;2.42;;
12112;SDS011;6120;52.250;8.478;2023-07-16T05:05:09;3.25;;;2.42;;
12112;SDS011;6120;52.250;8.478;2023-07-16T05:07:35;2.40;;;2.20;;
12112;SDS011;6120;52.250;8.478;2023-07-16T05:10:02;2.75;;;2.53;;
12112;SDS011;6120;52.250;8.478;2023-07-16T05:12:29;3.40;;;2.30;;
12112;SDS011;6120;52.250;8.478;2023-07-16T05:14:55;2.80;;;2.50;;
12112;SDS011;6120;52.250;8.478;2023-07-16T05:17:22;2.60;;;2.40;;
12112;SDS011;6120;52.250;8.478;2023-07-16T05:19:49;2.50;;;2.30;;
12112;SDS011;6120;52.250;8.478;2023-07-16T05:22:16;2.42;;;2.20;;
12112;SDS011;6120;52.250;8.478;2023-07-16T05:24:43;2.45;;;2.22;;
12112;SDS011;6120;52.250;8.478;2023-07-16T05:27:10;2.67;;;2.47;;
12112;SDS011;6120;52.250;8.478;2023-07-16T05:29:37;3.22;;;2.38;;
12112;SDS011;6120;52.250;8.478;2023-07-16T05:32:04;2.88;;;2.50;;
12112;SDS011;6120;52.250;8.478;2023-07-16T05:34:31;2.70;;;2.30;;
12112;SDS011;6120;52.250;8.478;2023-07-16T05:36:57;2.58;;;2.38;;
12112;SDS011;6120;52.250;8.478;2023-07-16T05:39:24;2.85;;;2.50;;
12112;SDS011;6120;52.250;8.478;2023-07-16T05:41:51;3.08;;;2.45;;
12112;SDS011;6120;52.250;8.478;2023-07-16T05:44:17;3.65;;;2.45;;
12112;SDS011;6120;52.250;8.478;2023-07-16T05:46:44;3.40;;;2.28;;
12112;SDS011;6120;52.250;8.478;2023-07-16T05:49:11;2.75;;;2.20;;
12112;SDS011;6120;52.250;8.478;2023-07-16T05:51:37;2.40;;;2.20;;
12112;SDS011;6120;52.250;8.478;2023-07-16T05:54:04;3.08;;;2.42;;
12112;SDS011;6120;52.250;8.478;2023-07-16T05:56:31;2.72;;;2.45;;
12112;SDS011;6120;52.250;8.478;2023-07-16T05:58:57;3.40;;;2.30;;
12112;SDS011;6120;52.250;8.478;2023-07-16T06:01:24;2.67;;;2.38;;
12112;SDS011;6120;52.250;8.478;2023-07-16T06:03:51;2.80;;;2.55;;
12112;SDS011;6120;52.250;8.478;2023-07-16T06:06:17;3.35;;;3.05;;
12112;SDS011;6120;52.250;8.478;2023-07-16T06:08:44;3.05;;;2.72;;
12112;SDS011;6120;52.250;8.478;2023-07-16T06:11:11;3.15;;;2.70;;
12112;SDS011;6120;52.250;8.478;2023-07-16T06:13:38;3.47;;;2.60;;
12112;SDS011;6120;52.250;8.478;2023-07-16T06:16:05;4.13;;;2.53;;
12112;SDS011;6120;52.250;8.478;2023-07-16T06:18:32;2.60;;;2.40;;
12112;SDS011;6120;52.250;8.478;2023-07-16T06:20:58;2.65;;;2.22;;
12112;SDS011;6120;52.250;8.478;2023-07-16T06:23:25;2.67;;;2.47;;
12112;SDS011;6120;52.250;8.478;2023-07-16T06:25:55;2.90;;;2.60;;
12112;SDS011;6120;52.250;8.478;2023-07-16T06:28:23;2.63;;;2.42;;
12112;SDS011;6120;52.250;8.478;2023-07-16T06:30:50;2.92;;;2.30;;
12112;SDS011;6120;52.250;8.478;2023-07-16T06:33:18;3.58;;;2.60;;
12112;SDS011;6120;52.250;8.478;2023-07-16T06:35:45;2.45;;;2.25;;
12112;SDS011;6120;52.250;8.478;2023-07-16T06:38:13;2.70;;;2.50;;
12112;SDS011;6120;52.250;8.478;2023-07-16T06:40:50;3.05;;;2.30;;
12112;SDS011;6120;52.250;8.478;2023-07-16T06:43:18;3.40;;;2.60;;
12112;SDS011;6120;52.250;8.478;2023-07-16T06:45:44;2.88;;;2.10;;
12112;SDS011;6120;52.250;8.478;2023-07-16T06:48:11;3.40;;;2.25;;
12112;SDS011;6120;52.250;8.478;2023-07-16T06:50:38;3.08;;;2.70;;
12112;SDS011;6120;52.250;8.478;2023-07-16T06:53:05;2.63;;;2.20;;
12112;SDS011;6120;52.250;8.478;2023-07-16T06:55:32;2.95;;;2.20;;
12112;SDS011;6120;52.250;8.478;2023-07-16T06:57:59;2.60;;;2.05;;
12112;SDS011;6120;52.250;8.478;2023-07-16T07:00:26;3.00;;;2.67;;
12112;SDS011;6120;52.250;8.478;2023-07-16T07:02:53;3.30;;;3.00;;
12112;SDS011;6120;52.250;8.478;2023-07-16T07:05:21;3.20;;;2.90;;
12112;SDS011;6120;52.250;8.478;2023-07-16T07:07:48;3.47;;;2.65;;
12112;SDS011;6120;52.250;8.478;2023-07-16T07:10:15;3.45;;;2.60;;
12112;SDS011;6120;52.250;8.478;2023-07-16T07:12:41;3.78;;;2.78;;
12112;SDS011;6120;52.250;8.478;2023-07-16T07:15:08;3.40;;;2.65;;
12112;SDS011;6120;52.250;8.478;2023-07-16T07:17:35;4.05;;;2.70;;
12112;SDS011;6120;52.250;8.478;2023-07-16T07:20:02;4.88;;;3.28;;
12112;SDS011;6120;52.250;8.478;2023-07-16T07:22:31;3.17;;;2.88;;
12112;SDS011;6120;52.250;8.478;2023-07-16T07:24:58;2.47;;;2.28;;
12112;SDS011;6120;52.250;8.478;2023-07-16T07:27:24;4.25;;;2.50;;
12112;SDS011;6120;52.250;8.478;2023-07-16T07:29:51;3.75;;;2.58;;
12112;SDS011;6120;52.250;8.478;2023-07-16T07:32:19;3.05;;;2.40;;
12112;SDS011;6120;52.250;8.478;2023-07-16T07:37:13;2.90;;;2.50;;
12112;SDS011;6120;52.250;8.478;2023-07-16T07:39:40;3.33;;;2.40;;
12112;SDS011;6120;52.250;8.478;2023-07-16T07:42:07;2.90;;;2.60;;
12112;SDS011;6120;52.250;8.478;2023-07-16T07:44:34;3.45;;;2.42;;
12112;SDS011;6120;52.250;8.478;2023-07-16T07:47:00;3.38;;;2.55;;
12112;SDS011;6120;52.250;8.478;2023-07-16T07:49:27;2.78;;;2.58;;
12112;SDS011;6120;52.250;8.478;2023-07-16T07:51:54;2.83;;;2.53;;
12112;SDS011;6120;52.250;8.478;2023-07-16T07:54:21;2.88;;;2.40;;
12112;SDS011;6120;52.250;8.478;2023-07-16T07:56:48;2.75;;;2.45;;
12112;SDS011;6120;52.250;8.478;2023-07-16T07:59:15;2.78;;;2.53;;
12112;SDS011;6120;52.250;8.478;2023-07-16T08:01:41;2.30;;;2.10;;
12112;SDS011;6120;52.250;8.478;2023-07-16T08:04:08;2.88;;;2.33;;
12112;SDS011;6120;52.250;8.478;2023-07-16T08:06:35;2.53;;;2.13;;
12112;SDS011;6120;52.250;8.478;2023-07-16T08:09:02;3.13;;;2.75;;
12112;SDS011;6120;52.250;8.478;2023-07-16T08:11:28;2.97;;;2.40;;
12112;SDS011;6120;52.250;8.478;2023-07-16T08:13:55;3.05;;;2.72;;
12112;SDS011;6120;52.250;8.478;2023-07-16T08:16:21;3.65;;;2.70;;
12112;SDS011;6120;52.250;8.478;2023-07-16T08:18:48;3.42;;;2.58;;
12112;SDS011;6120;52.250;8.478;2023-07-16T08:21:16;3.53;;;2.63;;
12112;SDS011;6120;52.250;8.478;2023-07-16T08:23:47;2.97;;;2.30;;
12112;SDS011;6120;52.250;8.478;2023-07-16T08:26:15;3.03;;;2.45;;
12112;SDS011;6120;52.250;8.478;2023-07-16T08:28:43;3.33;;;2.47;;
12112;SDS011;6120;52.250;8.478;2023-07-16T08:31:10;2.97;;;2.47;;
12112;SDS011;6120;52.250;8.478;2023-07-16T08:33:38;3.13;;;2.33;;
12112;SDS011;6120;52.250;8.478;2023-07-16T08:36:05;2.90;;;2.22;;
12112;SDS011;6120;52.250;8.478;2023-07-16T08:38:32;2.30;;;2.10;;
12112;SDS011;6120;52.250;8.478;2023-07-16T08:41:01;2.80;;;2.20;;
12112;SDS011;6120;52.250;8.478;2023-07-16T08:43:28;2.88;;;2.30;;
12112;SDS011;6120;52.250;8.478;2023-07-16T08:45:56;2.40;;;2.20;;
12112;SDS011;6120;52.250;8.478;2023-07-16T08:48:23;2.63;;;2.42;;
12112;SDS011;6120;52.250;8.478;2023-07-16T08:50:49;3.22;;;2.38;;
12112;SDS011;6120;52.250;8.478;2023-07-16T08:53:16;3.17;;;2.30;;
12112;SDS011;6120;52.250;8.478;2023-07-16T08:55:46;2.55;;;2.35;;
12112;SDS011;6120;52.250;8.478;2023-07-16T08:58:17;2.53;;;2.10;;
12112;SDS011;6120;52.250;8.478;2023-07-16T09:00:45;2.60;;;2.20;;
12112;SDS011;6120;52.250;8.478;2023-07-16T09:03:12;2.28;;;2.08;;
12112;SDS011;6120;52.250;8.478;2023-07-16T09:05:40;2.50;;;2.30;;
12112;SDS011;6120;52.250;8.478;2023-07-16T09:08:07;2.72;;;2.10;;
12112;SDS011;6120;52.250;8.478;2023-07-16T09:10:34;3.67;;;2.13;;
12112;SDS011;6120;52.250;8.478;2023-07-16T09:13:01;2.50;;;2.30;;
12112;SDS011;6120;52.250;8.478;2023-07-16T09:15:28;2.33;;;2.10;;
12112;SDS011;6120;52.250;8.478;2023-07-16T09:17:56;4.15;;;1.98;;
12112;SDS011;6120;52.250;8.478;2023-07-16T09:20:23;2.65;;;2.10;;
12112;SDS011;6120;52.250;8.478;2023-07-16T09:22:50;2.10;;;1.80;;
12112;SDS011;6120;52.250;8.478;2023-07-16T09:25:30;3.45;;;1.90;;
12112;SDS011;6120;52.250;8.478;2023-07-16T09:27:58;3.63;;;2.20;;
12112;SDS011;6120;52.250;8.478;2023-07-16T09:30:30;2.35;;;2.15;;
12112;SDS011;6120;52.250;8.478;2023-07-16T09:35:50;4.43;;;2.03;;
12112;SDS011;6120;52.250;8.478;2023-07-16T09:38:18;2.13;;;1.80;;
12112;SDS011;6120;52.250;8.478;2023-07-16T09:40:45;2.50;;;2.17;;
12112;SDS011;6120;52.250;8.478;2023-07-16T09:43:13;2.53;;;2.30;;
12112;SDS011;6120;52.250;8.478;2023-07-16T09:45:41;2.50;;;2.10;;
12112;SDS011;6120;52.250;8.478;2023-07-16T09:50:36;2.20;;;2.00;;
12112;SDS011;6120;52.250;8.478;2023-07-16T09:53:05;2.10;;;1.90;;
12112;SDS011;6120;52.250;8.478;2023-07-16T09:55:35;2.60;;;2.00;;
12112;SDS011;6120;52.250;8.478;2023-07-16T09:58:06;2.88;;;2.10;;
12112;SDS011;6120;52.250;8.478;2023-07-16T10:00:37;2.92;;;2.00;;
12112;SDS011;6120;52.250;8.478;2023-07-16T10:03:08;2.58;;;1.98;;
12112;SDS011;6120;52.250;8.478;2023-07-16T10:05:36;2.20;;;2.00;;
12112;SDS011;6120;52.250;8.478;2023-07-16T10:08:03;3.23;;;2.20;;
12112;SDS011;6120;52.250;8.478;2023-07-16T10:10:44;2.22;;;1.83;;
12112;SDS011;6120;52.250;8.478;2023-07-16T10:13:16;2.30;;;2.10;;
12112;SDS011;6120;52.250;8.478;2023-07-16T10:15:56;2.40;;;1.80;;
12112;SDS011;6120;52.250;8.478;2023-07-16T10:20:53;2.10;;;1.90;;
12112;SDS011;6120;52.250;8.478;2023-07-16T10:23:22;2.60;;;2.15;;
12112;SDS011;6120;52.250;8.478;2023-07-16T10:26:01;2.35;;;1.95;;
12112;SDS011;6120;52.250;8.478;2023-07-16T10:28:32;2.25;;;1.70;;
12112;SDS011;6120;52.250;8.478;2023-07-16T10:31:00;2.28;;;1.80;;
12112;SDS011;6120;52.250;8.478;2023-07-16T10:33:27;2.00;;;1.80;;
12112;SDS011;6120;52.250;8.478;2023-07-16T10:35:56;2.25;;;1.88;;
12112;SDS011;6120;52.250;8.478;2023-07-16T10:38:24;2.22;;;1.90;;
12112;SDS011;6120;52.250;8.478;2023-07-16T10:40:51;3.00;;;2.20;;
12112;SDS011;6120;52.250;8.478;2023-07-16T10:43:18;2.83;;;1.90;;
12112;SDS011;6120;52.250;8.478;2023-07-16T10:45:45;2.45;;;2.00;;
12112;SDS011;6120;52.250;8.478;2023-07-16T10:48:13;2.15;;;1.77;;
12112;SDS011;6120;52.250;8.478;2023-07-16T10:50:41;2.17;;;1.67;;
12112;SDS011;6120;52.250;8.478;2023-07-16T10:53:08;2.22;;;1.80;;
12112;SDS011;6120;52.250;8.478;2023-07-16T10:55:34;2.78;;;2.25;;
12112;SDS011;6120;52.250;8.478;2023-07-16T10:58:04;2.60;;;2.08;;
12112;SDS011;6120;52.250;8.478;2023-07-16T11:00:39;2.78;;;2.08;;
12112;SDS011;6120;52.250;8.478;2023-07-16T11:03:06;4.00;;;2.13;;
12112;SDS011;6120;52.250;8.478;2023-07-16T11:05:33;2.08;;;1.88;;
12112;SDS011;6120;52.250;8.478;2023-07-16T11:07:59;2.10;;;1.90;;
12112;SDS011;6120;52.250;8.478;2023-07-16T11:10:29;2.65;;;2.20;;
12112;SDS011;6120;52.250;8.478;2023-07-16T11:12:57;3.17;;;2.20;;
12112;SDS011;6120;52.250;8.478;2023-07-16T11:15:32;2.30;;;1.90;;
12112;SDS011;6120;52.250;8.478;2023-07-16T11:18:00;2.00;;;1.80;;
12112;SDS011;6120;52.250;8.478;2023-07-16T11:20:28;2.15;;;1.95;;
12112;SDS011;6120;52.250;8.478;2023-07-16T11:22:57;2.33;;;1.88;;
12112;SDS011;6120;52.250;8.478;2023-07-16T11:25:25;3.30;;;2.08;;
12112;SDS011;6120;52.250;8.478;2023-07-16T11:27:53;2.25;;;1.88;;
12112;SDS011;6120;52.250;8.478;2023-07-16T11:30:22;2.30;;;1.80;;
12112;SDS011;6120;52.250;8.478;2023-07-16T11:32:51;2.40;;;1.95;;
12112;SDS011;6120;52.250;8.478;2023-07-16T11:35:18;2.03;;;1.80;;
12112;SDS011;6120;52.250;8.478;2023-07-16T11:37:46;1.90;;;1.70;;
12112;SDS011;6120;52.250;8.478;2023-07-16T11:40:16;2.17;;;1.90;;
12112;SDS011;6120;52.250;8.478;2023-07-16T11:42:44;2.30;;;1.80;;
12112;SDS011;6120;52.250;8.478;2023-07-16T11:45:23;2.95;;;1.60;;
12112;SDS011;6120;52.250;8.478;2023-07-16T11:47:54;1.90;;;1.70;;
12112;SDS011;6120;52.250;8.478;2023-07-16T11:50:21;3.40;;;2.05;;
12112;SDS011;6120;52.250;8.478;2023-07-16T11:52:52;2.10;;;1.90;;
12112;SDS011;6120;52.250;8.478;2023-07-16T11:55:20;2.20;;;1.90;;
12112;SDS011;6120;52.250;8.478;2023-07-16T11:57:46;2.80;;;2.40;;
12112;SDS011;6120;52.250;8.478;2023-07-16T12:00:13;2.78;;;2.13;;
12112;SDS011;6120;52.250;8.478;2023-07-16T12:02:40;2.63;;;1.90;;
12112;SDS011;6120;52.250;8.478;2023-07-16T12:05:07;2.25;;;1.90;;
12112;SDS011;6120;52.250;8.478;2023-07-16T12:07:37;2.08;;;1.88;;
12112;SDS011;6120;52.250;8.478;2023-07-16T12:10:05;2.78;;;1.95;;
12112;SDS011;6120;52.250;8.478;2023-07-16T12:12:33;3.10;;;2.20;;
12112;SDS011;6120;52.250;8.478;2023-07-16T12:15:07;2.15;;;1.90;;
12112;SDS011;6120;52.250;8.478;2023-07-16T12:17:36;2.58;;;1.70;;
12112;SDS011;6120;52.250;8.478;2023-07-16T12:20:03;3.97;;;2.17;;
12112;SDS011;6120;52.250;8.478;2023-07-16T12:22:30;2.65;;;2.00;;
12112;SDS011;6120;52.250;8.478;2023-07-16T12:24:58;2.67;;;1.90;;
12112;SDS011;6120;52.250;8.478;2023-07-16T12:27:24;3.50;;;1.98;;
12112;SDS011;6120;52.250;8.478;2023-07-16T12:29:51;2.53;;;2.20;;
12112;SDS011;6120;52.250;8.478;2023-07-16T12:32:18;2.22;;;2.00;;
12112;SDS011;6120;52.250;8.478;2023-07-16T12:34:46;3.03;;;2.35;;
12112;SDS011;6120;52.250;8.478;2023-07-16T12:37:13;2.53;;;1.90;;
12112;SDS011;6120;52.250;8.478;2023-07-16T12:39:40;2.47;;;2.10;;
12112;SDS011;6120;52.250;8.478;2023-07-16T12:42:06;2.13;;;1.92;;
12112;SDS011;6120;52.250;8.478;2023-07-16T12:44:33;2.17;;;1.80;;
12112;SDS011;6120;52.250;8.478;2023-07-16T12:47:00;2.13;;;1.92;;
12112;SDS011;6120;52.250;8.478;2023-07-16T12:49:26;3.25;;;1.90;;
12112;SDS011;6120;52.250;8.478;2023-07-16T12:51:53;2.10;;;1.90;;
12112;SDS011;6120;52.250;8.478;2023-07-16T12:54:20;2.17;;;1.98;;
12112;SDS011;6120;52.250;8.478;2023-07-16T12:56:46;2.08;;;1.67;;
12112;SDS011;6120;52.250;8.478;2023-07-16T12:59:13;1.90;;;1.70;;
12112;SDS011;6120;52.250;8.478;2023-07-16T13:01:39;2.22;;;1.83;;
12112;SDS011;6120;52.250;8.478;2023-07-16T13:04:06;2.85;;;2.00;;
12112;SDS011;6120;52.250;8.478;2023-07-16T13:06:33;2.40;;;2.20;;
12112;SDS011;6120;52.250;8.478;2023-07-16T13:09:00;2.35;;;2.00;;
12112;SDS011;6120;52.250;8.478;2023-07-16T13:11:26;2.65;;;2.00;;
12112;SDS011;6120;52.250;8.478;2023-07-16T13:13:53;2.45;;;2.15;;
12112;SDS011;6120;52.250;8.478;2023-07-16T13:16:20;2.63;;;2.08;;
12112;SDS011;6120;52.250;8.478;2023-07-16T13:18:46;1.80;;;1.70;;
12112;SDS011;6120;52.250;8.478;2023-07-16T13:21:13;3.03;;;2.13;;
12112;SDS011;6120;52.250;8.478;2023-07-16T13:23:40;2.33;;;2.13;;
12112;SDS011;6120;52.250;8.478;2023-07-16T13:26:06;2.22;;;2.00;;
12112;SDS011;6120;52.250;8.478;2023-07-16T13:28:33;2.95;;;2.10;;
12112;SDS011;6120;52.250;8.478;2023-07-16T13:31:00;2.40;;;2.20;;
12112;SDS011;6120;52.250;8.478;2023-07-16T13:33:26;2.53;;;2.05;;
12112;SDS011;6120;52.250;8.478;2023-07-16T13:35:53;2.40;;;1.92;;
12112;SDS011;6120;52.250;8.478;2023-07-16T13:38:20;2.90;;;2.30;;
12112;SDS011;6120;52.250;8.478;2023-07-16T13:40:46;3.47;;;2.20;;
12112;SDS011;6120;52.250;8.478;2023-07-16T13:43:13;2.20;;;2.00;;
12112;SDS011;6120;52.250;8.478;2023-07-16T13:45:40;2.00;;;1.80;;
12112;SDS011;6120;52.250;8.478;2023-07-16T13:48:06;2.20;;;2.00;;
12112;SDS011;6120;52.250;8.478;2023-07-16T13:50:34;2.22;;;2.03;;
12112;SDS011;6120;52.250;8.478;2023-07-16T13:53:00;2.80;;;2.03;;
12112;SDS011;6120;52.250;8.478;2023-07-16T13:55:28;2.08;;;1.88;;
12112;SDS011;6120;52.250;8.478;2023-07-16T13:57:55;1.95;;;1.75;;
12112;SDS011;6120;52.250;8.478;2023-07-16T14:00:22;2.30;;;2.10;;
12112;SDS011;6120;52.250;8.478;2023-07-16T14:02:49;2.10;;;1.90;;
12112;SDS011;6120;52.250;8.478;2023-07-16T14:05:16;3.70;;;2.10;;
12112;SDS011;6120;52.250;8.478;2023-07-16T14:07:42;2.65;;;2.15;;
12112;SDS011;6120;52.250;8.478;2023-07-16T14:10:09;2.22;;;1.90;;
12112;SDS011;6120;52.250;8.478;2023-07-16T14:12:36;2.00;;;1.80;;
12112;SDS011;6120;52.250;8.478;2023-07-16T14:15:03;2.20;;;2.00;;
12112;SDS011;6120;52.250;8.478;2023-07-16T14:17:30;2.78;;;2.10;;
12112;SDS011;6120;52.250;8.478;2023-07-16T14:19:57;2.25;;;1.85;;
12112;SDS011;6120;52.250;8.478;2023-07-16T14:22:23;2.58;;;2.00;;
12112;SDS011;6120;52.250;8.478;2023-07-16T14:24:54;2.85;;;1.90;;
12112;SDS011;6120;52.250;8.478;2023-07-16T14:27:20;2.28;;;1.90;;
12112;SDS011;6120;52.250;8.478;2023-07-16T14:29:47;2.10;;;1.90;;
12112;SDS011;6120;52.250;8.478;2023-07-16T14:32:31;2.13;;;1.67;;
12112;SDS011;6120;52.250;8.478;2023-07-16T14:34:58;2.13;;;1.90;;
12112;SDS011;6120;52.250;8.478;2023-07-16T14:37:26;2.50;;;2.00;;
12112;SDS011;6120;52.250;8.478;2023-07-16T14:39:53;2.75;;;1.92;;
12112;SDS011;6120;52.250;8.478;2023-07-16T14:42:19;2.67;;;2.03;;
12112;SDS011;6120;52.250;8.478;2023-07-16T14:44:46;2.10;;;1.90;;
12112;SDS011;6120;52.250;8.478;2023-07-16T14:47:13;1.95;;;1.75;;
12112;SDS011;6120;52.250;8.478;2023-07-16T14:49:39;2.20;;;2.00;;
12112;SDS011;6120;52.250;8.478;2023-07-16T14:52:06;2.10;;;1.85;;
12112;SDS011;6120;52.250;8.478;2023-07-16T14:54:33;2.17;;;1.80;;
12112;SDS011;6120;52.250;8.478;2023-07-16T14:57:02;2.55;;;1.73;;
12112;SDS011;6120;52.250;8.478;2023-07-16T14:59:29;1.73;;;1.63;;
12112;SDS011;6120;52.250;8.478;2023-07-16T15:01:56;2.90;;;1.92;;
12112;SDS011;6120;52.250;8.478;2023-07-16T15:04:23;2.15;;;1.95;;
12112;SDS011;6120;52.250;8.478;2023-07-16T15:06:49;2.90;;;1.98;;
12112;SDS011;6120;52.250;8.478;2023-07-16T15:09:17;2.20;;;1.80;;
12112;SDS011;6120;52.250;8.478;2023-07-16T15:11:43;2.33;;;2.00;;
12112;SDS011;6120;52.250;8.478;2023-07-16T15:14:10;1.88;;;1.70;;
12112;SDS011;6120;52.250;8.478;2023-07-16T15:16:38;3.17;;;2.08;;
12112;SDS011;6120;52.250;8.478;2023-07-16T15:19:06;2.03;;;1.70;;
12112;SDS011;6120;52.250;8.478;2023-07-16T15:21:34;3.10;;;1.90;;